createdAt,value
2023-02-27T00:02:02.373Z,77.34
2023-02-27T00:04:29.043Z,77.65
2023-02-27T00:06:56.012Z,77.45
2023-02-27T00:09:24.134Z,77.35
2023-02-27T00:11:50.789Z,77.27
2023-02-27T00:14:17.695Z,77.33
2023-02-27T00:16:44.504Z,77.52
2023-02-27T00:19:11.730Z,77.75
2023-02-27T00:21:38.562Z,77.84
2023-02-27T00:24:05.748Z,77.96
2023-02-27T00:26:32.524Z,77.76
2023-02-27T00:28:59.063Z,78.38
2023-02-27T00:31:25.954Z,78.16
2023-02-27T00:33:52.608Z,78.39
2023-02-27T00:36:19.264Z,78.60
2023-02-27T00:38:45.767Z,78.25
2023-02-27T00:41:12.374Z,77.98
2023-02-27T00:43:38.898Z,77.86
2023-02-27T00:46:05.744Z,78.11
2023-02-27T00:48:32.583Z,78.70
2023-02-27T00:50:59.239Z,78.27
2023-02-27T00:53:25.788Z,78.65
2023-02-27T00:55:52.301Z,78.82
2023-02-27T00:58:18.886Z,78.82
2023-02-27T01:00:46.784Z,78.25
2023-02-27T01:03:13.879Z,78.26
2023-02-27T01:05:40.540Z,78.73
2023-02-27T01:08:07.280Z,78.25
2023-02-27T01:10:33.951Z,78.55
2023-02-27T01:13:00.641Z,78.69
2023-02-27T01:15:27.213Z,78.46
2023-02-27T01:17:53.765Z,78.71
2023-02-27T01:20:20.463Z,78.34
2023-02-27T01:22:47.039Z,78.55
2023-02-27T01:25:13.612Z,78.25
2023-02-27T01:27:40.731Z,78.45
2023-02-27T01:30:08.825Z,78.56
2023-02-27T01:32:35.415Z,78.65
2023-02-27T01:35:02.894Z,78.51
2023-02-27T01:37:29.498Z,78.78
2023-02-27T01:39:56.052Z,78.91
2023-02-27T01:42:25.929Z,78.65
2023-02-27T01:45:04.928Z,78.93
2023-02-27T01:47:31.974Z,78.68
2023-02-27T01:49:59.474Z,79.06
2023-02-27T01:52:27.709Z,79.00
2023-02-27T01:54:55.498Z,79.16
2023-02-27T01:57:22.977Z,79.37
2023-02-27T01:59:49.750Z,79.17
2023-02-27T02:02:24.329Z,79.01
2023-02-27T02:04:51.594Z,78.99
2023-02-27T02:07:20.880Z,79.15
2023-02-27T02:09:51.783Z,79.42
2023-02-27T02:12:22.509Z,79.91
2023-02-27T02:14:49.983Z,79.47
2023-02-27T02:17:32.585Z,79.37
2023-02-27T02:20:15.293Z,79.35
2023-02-27T02:23:19.396Z,79.46
2023-02-27T02:26:05.586Z,79.22
2023-02-27T02:28:47.386Z,79.42
2023-02-27T02:31:39.053Z,79.62
2023-02-27T02:34:30.716Z,79.47
2023-02-27T02:37:08.328Z,79.90
2023-02-27T02:39:41.776Z,79.86
2023-02-27T02:42:24.480Z,80.15
2023-02-27T02:44:51.928Z,79.80
2023-02-27T02:47:29.929Z,79.88
2023-02-27T02:50:21.799Z,79.82
2023-02-27T02:53:01.564Z,80.00
2023-02-27T02:55:35.055Z,80.00
2023-02-27T02:58:17.300Z,79.94
2023-02-27T03:00:54.976Z,80.06
2023-02-27T03:03:34.414Z,79.98
2023-02-27T03:06:06.429Z,79.86
2023-02-27T03:08:40.589Z,79.93
2023-02-27T03:11:07.381Z,79.68
2023-02-27T03:13:41.020Z,79.94
2023-02-27T03:16:25.531Z,80.20
2023-02-27T03:19:00.542Z,80.54
2023-02-27T03:21:37.715Z,80.13
2023-02-27T03:24:07.944Z,80.34
2023-02-27T03:26:39.790Z,80.40
2023-02-27T03:29:12.863Z,80.64
2023-02-27T03:31:56.900Z,80.34
2023-02-27T03:34:30.158Z,80.85
2023-02-27T03:37:07.617Z,80.66
2023-02-27T03:42:41.170Z,80.96
2023-02-27T03:45:29.061Z,80.85
2023-02-27T03:47:55.795Z,80.39
2023-02-27T03:50:22.517Z,80.66
2023-02-27T03:52:50.013Z,80.89
2023-02-27T03:55:25.185Z,80.77
2023-02-27T03:57:52.412Z,80.45
2023-02-27T04:00:22.813Z,80.73
2023-02-27T04:02:51.690Z,80.78
2023-02-27T04:05:19.518Z,80.96
2023-02-27T04:08:02.829Z,80.81
2023-02-27T04:10:36.290Z,80.87
2023-02-27T04:13:03.764Z,80.87
2023-02-27T04:16:00.861Z,81.18
2023-02-27T04:18:56.745Z,81.13
2023-02-27T04:21:29.547Z,81.17
2023-02-27T04:24:14.148Z,80.96
2023-02-27T04:26:54.639Z,81.31
2023-02-27T04:29:44.419Z,81.07
2023-02-27T04:32:43.917Z,81.01
2023-02-27T04:35:17.359Z,80.98
2023-02-27T04:37:52.676Z,81.23
2023-02-27T04:40:24.320Z,81.42
2023-02-27T04:42:54.974Z,80.98
2023-02-27T04:45:26.048Z,81.35
2023-02-27T04:47:58.979Z,81.24
2023-02-27T04:50:30.824Z,81.47
2023-02-27T04:53:04.692Z,80.95
2023-02-27T04:55:36.324Z,81.30
2023-02-27T04:58:13.363Z,81.17
2023-02-27T05:00:43.190Z,80.84
2023-02-27T05:03:16.749Z,80.87
2023-02-27T05:05:48.276Z,80.90
2023-02-27T05:08:26.806Z,81.07
2023-02-27T05:11:05.935Z,81.55
2023-02-27T05:13:38.171Z,81.59
2023-02-27T05:16:14.826Z,81.81
2023-02-27T05:18:41.637Z,81.56
2023-02-27T05:21:15.285Z,81.45
2023-02-27T05:23:51.069Z,81.73
2023-02-27T05:26:27.263Z,81.61
2023-02-27T05:28:58.413Z,81.61
2023-02-27T05:31:43.816Z,81.44
2023-02-27T05:34:18.875Z,81.44
2023-02-27T05:36:53.847Z,81.34
2023-02-27T05:39:24.374Z,81.58
2023-02-27T05:42:00.621Z,81.53
2023-02-27T05:44:35.535Z,81.54
2023-02-27T05:47:10.619Z,81.72
2023-02-27T05:49:42.481Z,81.50
2023-02-27T05:52:15.089Z,81.75
2023-02-27T05:54:51.800Z,82.04
2023-02-27T05:57:27.830Z,81.96
2023-02-27T06:00:11.577Z,81.90
2023-02-27T06:02:39.209Z,81.59
2023-02-27T06:05:06.705Z,81.93
2023-02-27T06:07:34.605Z,82.07
2023-02-27T06:10:01.283Z,82.50
2023-02-27T06:12:28.069Z,82.46
2023-02-27T06:14:54.665Z,82.02
2023-02-27T06:17:22.261Z,82.19
2023-02-27T06:19:48.831Z,82.48
2023-02-27T06:22:16.506Z,82.28
2023-02-27T06:24:43.112Z,82.40
2023-02-27T06:27:09.676Z,82.71
2023-02-27T06:29:36.253Z,82.76
2023-02-27T06:32:02.910Z,82.61
2023-02-27T06:34:29.549Z,82.90
2023-02-27T06:36:55.994Z,83.00
2023-02-27T06:39:22.900Z,83.23
2023-02-27T06:41:49.498Z,83.04
2023-02-27T06:44:17.958Z,83.72
2023-02-27T06:46:45.860Z,83.32
2023-02-27T06:49:12.413Z,83.29
2023-02-27T06:51:39.287Z,83.40
2023-02-27T06:54:06.180Z,83.57
2023-02-27T06:56:32.774Z,83.83
2023-02-27T06:58:59.671Z,83.95
2023-02-27T07:01:26.487Z,83.58
2023-02-27T07:03:53.359Z,83.90
2023-02-27T07:07:33.144Z,83.89
2023-02-27T07:09:12.066Z,83.98
2023-02-27T07:11:38.877Z,83.94
2023-02-27T07:14:07.007Z,83.78
2023-02-27T07:16:34.691Z,84.22
2023-02-27T07:19:01.337Z,83.59
2023-02-27T07:21:27.930Z,83.46
2023-02-27T07:23:54.520Z,84.06
2023-02-27T07:26:21.246Z,83.72
2023-02-27T07:28:47.721Z,83.73
2023-02-27T07:31:14.707Z,83.63
2023-02-27T07:33:41.890Z,83.26
2023-02-27T07:36:08.486Z,82.98
2023-02-27T07:38:35.063Z,82.87
2023-02-27T07:41:01.637Z,82.59
2023-02-27T07:43:28.170Z,82.29
2023-02-27T07:45:54.716Z,82.71
2023-02-27T07:48:21.230Z,82.38
2023-02-27T07:50:47.774Z,82.29
2023-02-27T07:53:14.451Z,81.63
2023-02-27T07:55:42.182Z,81.88
2023-02-27T07:58:08.766Z,81.47
2023-02-27T08:00:35.374Z,81.26
2023-02-27T08:03:01.887Z,81.54
2023-02-27T08:05:28.472Z,80.94
2023-02-27T08:07:55.073Z,81.02
2023-02-27T08:10:21.668Z,81.00
2023-02-27T08:12:48.237Z,80.37
2023-02-27T08:15:16.065Z,80.83
2023-02-27T08:17:42.574Z,80.67
2023-02-27T08:20:11.676Z,80.69
2023-02-27T08:22:38.461Z,80.42
2023-02-27T08:25:07.697Z,80.04
2023-02-27T08:27:34.940Z,80.15
2023-02-27T08:30:01.447Z,79.69
2023-02-27T08:32:28.333Z,79.78
2023-02-27T08:34:54.820Z,79.40
2023-02-27T08:37:22.378Z,78.72
2023-02-27T08:39:48.925Z,79.09
2023-02-27T08:42:15.444Z,79.39
2023-02-27T08:44:42.265Z,78.62
2023-02-27T08:47:08.845Z,79.05
2023-02-27T08:49:35.385Z,78.64
2023-02-27T08:52:03.711Z,78.78
2023-02-27T08:54:30.475Z,78.49
2023-02-27T08:56:56.999Z,78.25
2023-02-27T08:59:23.900Z,78.39
2023-02-27T09:01:50.537Z,77.74
2023-02-27T09:04:17.042Z,77.95
2023-02-27T09:06:43.738Z,77.70
2023-02-27T09:09:11.276Z,77.60
2023-02-27T09:11:38.870Z,77.47
2023-02-27T09:14:06.583Z,77.48
2023-02-27T09:16:33.210Z,77.26
2023-02-27T09:18:59.792Z,76.69
2023-02-27T09:21:26.439Z,76.87
2023-02-27T09:23:53.092Z,77.08
2023-02-27T09:26:19.726Z,76.73
2023-02-27T09:28:46.592Z,76.52
2023-02-27T09:31:13.346Z,76.67
2023-02-27T09:33:40.013Z,76.07
2023-02-27T09:36:09.012Z,75.91
2023-02-27T09:38:36.790Z,74.76
2023-02-27T09:41:08.169Z,75.05
2023-02-27T09:43:43.334Z,74.96
2023-02-27T09:46:19.216Z,74.73
2023-02-27T09:48:52.011Z,73.48
2023-02-27T09:51:19.356Z,73.68
2023-02-27T09:53:50.884Z,73.33
2023-02-27T09:56:28.287Z,74.04
2023-02-27T09:59:22.533Z,72.70
2023-02-27T10:01:50.067Z,73.25
2023-02-27T10:04:37.228Z,72.82
2023-02-27T10:07:04.683Z,72.59
2023-02-27T10:09:38.276Z,72.70
2023-02-27T10:12:24.321Z,72.68
2023-02-27T10:14:57.630Z,72.84
2023-02-27T10:17:29.880Z,71.90
2023-02-27T10:19:58.492Z,69.00
2023-02-27T10:22:31.496Z,67.65
2023-02-27T10:25:06.275Z,66.68
2023-02-27T10:27:35.490Z,66.01
2023-02-27T10:30:29.778Z,65.54
2023-02-27T10:33:07.433Z,64.91
2023-02-27T10:35:37.632Z,65.53
2023-02-27T10:38:18.045Z,64.52
2023-02-27T10:40:46.444Z,65.19
2023-02-27T10:43:16.425Z,64.24
2023-02-27T10:45:43.929Z,63.54
2023-02-27T10:48:12.068Z,63.50
2023-02-27T10:50:42.734Z,61.49
2023-02-27T10:53:18.353Z,59.90
2023-02-27T10:55:57.072Z,59.53
2023-02-27T10:58:25.562Z,60.58
2023-02-27T11:00:58.037Z,60.23
2023-02-27T11:03:29.188Z,60.46
2023-02-27T11:05:58.917Z,60.02
2023-02-27T11:08:30.196Z,60.04
2023-02-27T11:11:06.873Z,59.92
2023-02-27T11:13:36.743Z,61.32
2023-02-27T11:16:07.156Z,60.21
2023-02-27T11:18:55.680Z,60.41
2023-02-27T11:21:44.222Z,59.83
2023-02-27T11:24:21.282Z,59.68
2023-02-27T11:27:38.902Z,59.94
2023-02-27T11:30:53.169Z,58.09
2023-02-27T11:33:21.262Z,58.86
2023-02-27T11:35:57.167Z,57.40
2023-02-27T11:38:29.827Z,58.30
2023-02-27T11:40:58.115Z,57.58
2023-02-27T11:43:47.471Z,57.68
2023-02-27T11:46:47.342Z,57.54
2023-02-27T11:49:40.209Z,57.76
2023-02-27T11:52:20.854Z,57.26
2023-02-27T11:58:18.966Z,58.51
2023-02-27T12:01:04.563Z,57.13
2023-02-27T12:03:56.123Z,57.33
2023-02-27T12:06:30.388Z,57.22
2023-02-27T12:09:02.840Z,56.88
2023-02-27T12:11:36.011Z,56.79
2023-02-27T12:14:11.059Z,56.67
2023-02-27T12:17:04.884Z,55.78
2023-02-27T12:19:40.606Z,56.02
2023-02-27T12:22:31.218Z,55.67
2023-02-27T12:25:34.979Z,56.33
2023-02-27T12:28:20.638Z,55.77
2023-02-27T12:31:34.964Z,53.60
2023-02-27T12:34:08.563Z,53.73
2023-02-27T12:43:02.482Z,55.73
2023-02-27T12:46:26.348Z,55.91
2023-02-27T12:52:32.836Z,54.31
2023-02-27T12:58:37.958Z,55.65
2023-02-27T13:01:27.891Z,54.84
2023-02-27T13:03:56.320Z,55.05
2023-02-27T13:06:33.179Z,55.96
2023-02-27T13:09:11.989Z,55.10
2023-02-27T13:12:15.043Z,54.24
2023-02-27T13:15:37.019Z,54.85
2023-02-27T13:18:30.801Z,54.84
2023-02-27T13:21:08.728Z,54.61
2023-02-27T13:23:40.532Z,55.67
2023-02-27T13:26:22.833Z,55.95
2023-02-27T13:28:51.668Z,56.35
2023-02-27T13:31:33.013Z,57.86
2023-02-27T13:34:27.778Z,56.15
2023-02-27T13:40:30.753Z,56.49
2023-02-27T13:43:04.231Z,55.80
2023-02-27T13:45:58.139Z,56.05
2023-02-27T13:51:36.768Z,56.68
2023-02-27T13:54:27.990Z,56.68
2023-02-27T13:59:59.528Z,54.72
2023-02-27T14:02:40.225Z,54.33
2023-02-27T14:05:43.953Z,54.52
2023-02-27T14:11:58.042Z,55.08
2023-02-27T14:14:49.012Z,54.74
2023-02-27T14:17:36.692Z,54.28
2023-02-27T14:20:10.588Z,54.86
2023-02-27T14:22:40.885Z,54.52
2023-02-27T14:25:17.410Z,54.73
2023-02-27T14:27:45.614Z,54.81
2023-02-27T14:30:34.420Z,55.27
2023-02-27T14:33:12.099Z,53.81
2023-02-27T14:35:38.928Z,53.79
2023-02-27T14:38:11.146Z,54.53
2023-02-27T14:40:55.217Z,54.77
2023-02-27T14:57:07.587Z,54.67
2023-02-27T14:59:42.784Z,54.59
2023-02-27T15:02:24.804Z,55.06
2023-02-27T15:05:15.641Z,54.45
2023-02-27T15:07:47.210Z,54.67
2023-02-27T15:10:24.770Z,55.28
2023-02-27T15:12:53.187Z,55.28
2023-02-27T15:15:21.824Z,55.70
2023-02-27T15:17:52.811Z,55.91
2023-02-27T15:20:25.214Z,55.91
2023-02-27T15:22:51.948Z,55.53
2023-02-27T15:25:39.245Z,56.00
2023-02-27T15:28:16.789Z,55.77
2023-02-27T15:30:48.530Z,56.40
2023-02-27T15:33:17.517Z,56.18
2023-02-27T15:35:46.133Z,55.85
2023-02-27T15:38:31.776Z,55.89
2023-02-27T15:41:00.569Z,57.00
2023-02-27T15:43:28.671Z,57.12
2023-02-27T15:45:59.078Z,58.03
2023-02-27T15:48:26.258Z,57.26
2023-02-27T15:50:56.797Z,56.62
2023-02-27T15:53:26.655Z,56.57
2023-02-27T15:55:59.058Z,56.44
2023-02-27T15:58:27.052Z,57.34
2023-02-27T16:01:03.280Z,57.24
2023-02-27T16:03:35.641Z,57.31
2023-02-27T16:06:03.371Z,57.63
2023-02-27T16:08:31.531Z,57.15
2023-02-27T16:10:58.287Z,56.84
2023-02-27T16:13:25.779Z,56.72
2023-02-27T16:16:05.880Z,56.50
2023-02-27T16:18:45.000Z,56.79
2023-02-27T16:21:15.583Z,56.98
2023-02-27T16:23:43.298Z,57.44
2023-02-27T16:26:28.255Z,57.21
2023-02-27T16:29:01.880Z,57.20
2023-02-27T16:31:40.546Z,56.99
2023-02-27T16:34:12.757Z,57.37
2023-02-27T16:36:40.832Z,57.75
2023-02-27T16:39:12.780Z,57.98
2023-02-27T16:41:39.384Z,58.02
2023-02-27T16:44:06.016Z,58.21
2023-02-27T16:46:32.670Z,58.55
2023-02-27T16:49:04.590Z,59.05
2023-02-27T16:51:37.611Z,58.78
2023-02-27T16:54:04.566Z,59.08
2023-02-27T16:56:38.053Z,58.87
2023-02-27T16:59:05.850Z,59.19
2023-02-27T17:01:34.112Z,59.58
2023-02-27T17:04:01.983Z,59.96
2023-02-27T17:06:30.430Z,59.73
2023-02-27T17:08:58.008Z,60.21
2023-02-27T17:11:24.581Z,60.58
2023-02-27T17:13:51.702Z,61.05
2023-02-27T17:16:18.314Z,61.87
2023-02-27T17:18:48.246Z,61.40
2023-02-27T17:21:14.976Z,61.89
2023-02-27T17:23:41.484Z,62.47
2023-02-27T17:26:08.020Z,61.88
2023-02-27T17:28:34.527Z,62.54
2023-02-27T17:31:02.635Z,63.57
2023-02-27T17:33:31.059Z,63.71
2023-02-27T17:36:03.600Z,63.91
2023-02-27T17:38:30.093Z,64.87
2023-02-27T17:40:56.645Z,64.79
2023-02-27T17:43:23.459Z,65.17
2023-02-27T17:45:50.124Z,65.20
2023-02-27T17:48:16.732Z,65.83
2023-02-27T17:50:44.952Z,65.68
2023-02-27T17:53:11.698Z,65.92
2023-02-27T17:55:40.400Z,66.24
2023-02-27T17:58:07.129Z,66.53
2023-02-27T18:00:34.842Z,66.64
2023-02-27T18:03:02.084Z,67.20
2023-02-27T18:05:28.662Z,67.68
2023-02-27T18:07:55.729Z,67.64
2023-02-27T18:10:22.476Z,67.56
2023-02-27T18:12:48.968Z,67.59
2023-02-27T18:15:15.472Z,67.86
2023-02-27T18:17:44.610Z,67.91
2023-02-27T18:20:13.075Z,68.22
2023-02-27T18:22:39.557Z,68.03
2023-02-27T18:25:07.292Z,68.08
2023-02-27T18:27:34.093Z,68.46
2023-02-27T18:30:35.770Z,68.33
2023-02-27T18:35:53.609Z,68.76
2023-02-27T18:38:32.379Z,68.38
2023-02-27T18:41:08.079Z,68.60
2023-02-27T18:44:07.542Z,68.51
2023-02-27T18:49:42.257Z,69.14
2023-02-27T19:00:51.567Z,69.50
2023-02-27T19:12:44.825Z,70.39
2023-02-27T19:21:31.346Z,70.69
2023-02-27T19:26:47.990Z,71.04
2023-02-27T19:29:27.006Z,71.35
2023-02-27T19:32:14.054Z,71.31
2023-02-27T19:35:04.145Z,71.48
2023-02-27T19:40:30.644Z,71.33
2023-02-27T19:43:02.627Z,71.06
2023-02-27T19:45:39.247Z,71.97
2023-02-27T19:48:15.332Z,71.90
2023-02-27T19:50:54.195Z,71.33
2023-02-27T19:56:24.917Z,72.35
2023-02-27T19:58:52.097Z,72.33
2023-02-27T20:01:27.961Z,72.21
2023-02-27T20:03:56.343Z,72.63
2023-02-27T20:06:26.217Z,72.35
2023-02-27T20:08:54.212Z,72.38
2023-02-27T20:11:21.757Z,73.04
2023-02-27T20:13:50.374Z,72.86
2023-02-27T20:16:20.828Z,72.69
2023-02-27T20:18:48.786Z,73.25
2023-02-27T20:21:24.004Z,72.85
2023-02-27T20:23:51.874Z,73.52
2023-02-27T20:26:23.490Z,73.83
2023-02-27T20:28:52.190Z,73.56
2023-02-27T20:31:22.029Z,74.11
2023-02-27T20:33:49.845Z,73.94
2023-02-27T20:36:16.598Z,73.71
2023-02-27T20:38:43.886Z,73.82
2023-02-27T20:41:13.989Z,74.33
2023-02-27T20:43:43.287Z,74.45
2023-02-27T20:46:15.074Z,74.37
2023-02-27T20:48:42.009Z,74.96
2023-02-27T20:51:11.971Z,74.90
2023-02-27T20:53:40.479Z,75.16
2023-02-27T20:56:08.466Z,75.01
2023-02-27T20:58:36.888Z,74.84
2023-02-27T21:01:11.203Z,74.90
2023-02-27T21:03:39.706Z,75.69
2023-02-27T21:06:08.677Z,75.15
2023-02-27T21:08:39.798Z,75.79
2023-02-27T21:11:09.876Z,75.35
2023-02-27T21:13:37.473Z,76.15
2023-02-27T21:16:05.714Z,75.86
2023-02-27T21:18:32.485Z,75.97
2023-02-27T21:21:04.176Z,76.42
2023-02-27T21:23:30.848Z,76.50
2023-02-27T21:25:57.577Z,76.53
2023-02-27T21:28:24.373Z,76.46
2023-02-27T21:30:54.467Z,77.16
2023-02-27T21:33:22.560Z,76.94
2023-02-27T21:35:49.652Z,77.06
2023-02-27T21:38:18.698Z,76.80
2023-02-27T21:40:45.311Z,77.30
2023-02-27T21:43:12.019Z,77.48
2023-02-27T21:45:42.830Z,77.35
2023-02-27T21:48:09.356Z,77.79
2023-02-27T21:50:36.637Z,77.46
2023-02-27T21:53:03.297Z,77.24
2023-02-27T21:55:30.009Z,77.63
2023-02-27T21:57:56.922Z,77.59
2023-02-27T22:00:26.598Z,77.94
2023-02-27T22:02:53.731Z,78.40
2023-02-27T22:05:22.540Z,78.23
2023-02-27T22:07:49.249Z,78.23
2023-02-27T22:10:16.054Z,78.54
2023-02-27T22:12:43.097Z,78.65
2023-02-27T22:15:10.184Z,78.22
2023-02-27T22:17:36.872Z,78.59
2023-02-27T22:20:05.458Z,79.07
2023-02-27T22:22:32.136Z,78.68
2023-02-27T22:24:59.067Z,79.07
2023-02-27T22:27:25.632Z,79.13
2023-02-27T22:29:52.366Z,79.05
2023-02-27T22:32:19.005Z,79.09
2023-02-27T22:34:45.620Z,79.41
2023-02-27T22:37:13.755Z,79.81
2023-02-27T22:39:41.308Z,79.97
2023-02-27T22:42:08.668Z,79.82
2023-02-27T22:44:35.240Z,80.13
2023-02-27T22:47:01.879Z,80.08
2023-02-27T22:49:28.525Z,79.81
2023-02-27T22:51:55.261Z,80.33
2023-02-27T22:54:23.262Z,80.30
2023-02-27T22:56:51.822Z,80.56
2023-02-27T22:59:18.777Z,80.28
2023-02-27T23:01:45.483Z,79.96
2023-02-27T23:04:12.221Z,80.39
2023-02-27T23:06:40.539Z,80.68
2023-02-27T23:09:16.363Z,80.74
2023-02-27T23:11:43.572Z,80.91
2023-02-27T23:14:11.217Z,81.34
2023-02-27T23:16:37.978Z,81.01
2023-02-27T23:19:04.897Z,80.88
2023-02-27T23:21:35.162Z,81.15
2023-02-27T23:24:20.622Z,80.98
2023-02-27T23:26:49.308Z,81.43
2023-02-27T23:29:15.914Z,81.65
2023-02-27T23:31:43.001Z,81.35
2023-02-27T23:34:09.985Z,81.29
2023-02-27T23:36:38.136Z,81.43
2023-02-27T23:39:05.827Z,81.50
2023-02-27T23:41:33.426Z,81.60
2023-02-27T23:44:01.510Z,81.50
2023-02-27T23:46:30.764Z,81.72
2023-02-27T23:48:59.430Z,81.55
2023-02-27T23:51:27.836Z,81.69
2023-02-27T23:53:55.578Z,82.17
2023-02-27T23:56:25.178Z,81.83
2023-02-27T23:58:56.446Z,82.45
